Fairbanks, Indiana
Current Conditions -  °F | °C
As of 9:15 AM on Monday 20 Oct 2014 (Local Time) from KRSV Reporting Station
Broken Clouds Broken Clouds  
Wind Chill: 54°   Ceiling: 9000
Heat Index: 54°   Visibility: 10mi
Dew Point: 49°   Wind: 8mph
Humidity: 84%   Direction: 210°SSW
Pressure: 29.96"   Gusts: NA
Location:  39.22°N, 87.52°W
Report Text: KRSV 201315Z AUTO 21007KT 10SM BKN090 BKN110 12/10 A2996 RMK AO2 T01210095
Loading
Personal Weather Stations






























Interactive Weather Map
Tropical Storm Tracking
New forecast layout! Learn more

10-Day Weather Forecast

Advertisements
Track Severe Weather on mobile